Colorado Springs, CO

6:42 AM MDT on August 29, 2016 (GMT -0600)
Colorado Springs | | Change Station

Elev 6204 ft 38.85 °N, 104.79 °W | Updated 8 minutes ago

Mostly Cloudy
Mostly Cloudy
53.6 °F
Feels Like 53.6 °F
N
1.9
Wind Variable Wind from NW
Gusts 4.3 mph

Today
High -- | Low -- °F
--% Chance of Precip.
Yesterday
High -- | Low -- °F
Precip. -- in
Pressure 30.06 in
Visibility 10.0 miles
Clouds Few 12000 ft
Scattered Clouds 16000 ft
Mostly Cloudy 23000 ft
Dew Point 50 °F
Humidity 89%
Rainfall 0.31 in
Snow Depth Not available.
6:26 AM 7:33 PM
Waning Crescent, 9% visible
METAR KCOS 291154Z 35003KT 10SM FEW120 SCT160 BKN230 14/09 A3030 RMK AO2 SLP179 60050 70102 T01390089 10139 20122 56022
Pressure 30.06 in
Visibility 10.0 miles
Clouds Few 12000 ft
Scattered Clouds 16000 ft
Mostly Cloudy 23000 ft
Dew Point 50 °F
Humidity 89%
Rainfall 0.31 in
Snow Depth Not available.
6:26 AM 7:33 PM
Waning Crescent, 9% visible
METAR KCOS 291154Z 35003KT 10SM FEW120 SCT160 BKN230 14/09 A3030 RMK AO2 SLP179 60050 70102 T01390089 10139 20122 56022

10-Day Weather Forecast

Almanac

Astronomy

Aug. 29, 2016 Rise Set
Actual Time
Civil Twilight
Nautical Twilight
Astronomical Twilight
Moon
Length of Visible Light
Length of Day
Tomorrow will be .
, % of the Moon is Illuminated

Today's Extremes

State Highs State Lows

Community

WunderPhotos

Upload Photos

1,935,810 photos uploaded!

WunderBlog® & News

Nearby

Air Quality

  Air Quality AQ Index Pollutant
Not available.

Snow Depth

Station Depth Elevation

Earthquake Activity

City Distance Mag. Time & Date
Minimum magnitude displayed is 2.5.

Coastal Water Temperatures

Place Temperature

Stations

Nearby Weather Stations

Station Location Temp. Windchill Dew Point Humidity Wind Precip. Elev Updated Type
                   

Watches & Warnings

There are currently no watches in effect.